sensor_id;sensor_type;location;lat;lon;timestamp;P1;durP1;ratioP1;P2;durP2;ratioP2
49614;SDS011;35517;45.272;9.984;2022-11-21T00:02:04;44.03;;;24.30;;
49614;SDS011;35517;45.272;9.984;2022-11-21T00:04:31;41.50;;;24.50;;
49614;SDS011;35517;45.272;9.984;2022-11-21T00:06:57;38.42;;;23.63;;
49614;SDS011;35517;45.272;9.984;2022-11-21T00:09:24;38.63;;;23.80;;
49614;SDS011;35517;45.272;9.984;2022-11-21T00:11:50;38.33;;;24.23;;
49614;SDS011;35517;45.272;9.984;2022-11-21T00:14:17;38.85;;;24.25;;
49614;SDS011;35517;45.272;9.984;2022-11-21T00:16:44;41.47;;;25.35;;
49614;SDS011;35517;45.272;9.984;2022-11-21T00:19:10;39.42;;;23.88;;
49614;SDS011;35517;45.272;9.984;2022-11-21T00:21:37;36.55;;;22.95;;
49614;SDS011;35517;45.272;9.984;2022-11-21T00:24:04;37.30;;;23.80;;
49614;SDS011;35517;45.272;9.984;2022-11-21T00:26:32;40.90;;;23.85;;
49614;SDS011;35517;45.272;9.984;2022-11-21T00:28:58;38.55;;;24.27;;
49614;SDS011;35517;45.272;9.984;2022-11-21T00:31:25;47.20;;;27.00;;
49614;SDS011;35517;45.272;9.984;2022-11-21T00:33:51;47.05;;;27.13;;
49614;SDS011;35517;45.272;9.984;2022-11-21T00:36:18;47.88;;;27.00;;
49614;SDS011;35517;45.272;9.984;2022-11-21T00:38:44;44.00;;;26.25;;
49614;SDS011;35517;45.272;9.984;2022-11-21T00:41:11;49.53;;;29.25;;
49614;SDS011;35517;45.272;9.984;2022-11-21T00:43:38;46.28;;;27.25;;
49614;SDS011;35517;45.272;9.984;2022-11-21T00:46:04;50.67;;;28.05;;
49614;SDS011;35517;45.272;9.984;2022-11-21T00:48:31;48.92;;;27.88;;
49614;SDS011;35517;45.272;9.984;2022-11-21T00:50:58;40.25;;;24.50;;
49614;SDS011;35517;45.272;9.984;2022-11-21T00:53:25;38.00;;;23.17;;
49614;SDS011;35517;45.272;9.984;2022-11-21T00:55:51;38.60;;;25.17;;
49614;SDS011;35517;45.272;9.984;2022-11-21T00:58:18;40.03;;;22.77;;
49614;SDS011;35517;45.272;9.984;2022-11-21T01:00:44;44.30;;;23.95;;
49614;SDS011;35517;45.272;9.984;2022-11-21T01:03:11;43.97;;;25.58;;
49614;SDS011;35517;45.272;9.984;2022-11-21T01:05:37;37.50;;;21.95;;
49614;SDS011;35517;45.272;9.984;2022-11-21T01:08:04;91.90;;;25.80;;
49614;SDS011;35517;45.272;9.984;2022-11-21T01:10:31;94.78;;;21.75;;
49614;SDS011;35517;45.272;9.984;2022-11-21T01:12:57;196.57;;;29.85;;
49614;SDS011;35517;45.272;9.984;2022-11-21T01:15:26;28.70;;;18.40;;
49614;SDS011;35517;45.272;9.984;2022-11-21T01:17:52;28.17;;;18.90;;
49614;SDS011;35517;45.272;9.984;2022-11-21T01:20:19;27.15;;;18.02;;
49614;SDS011;35517;45.272;9.984;2022-11-21T01:22:45;31.83;;;19.65;;
49614;SDS011;35517;45.272;9.984;2022-11-21T01:25:12;39.28;;;22.30;;
49614;SDS011;35517;45.272;9.984;2022-11-21T01:27:38;30.83;;;19.63;;
49614;SDS011;35517;45.272;9.984;2022-11-21T01:30:06;38.03;;;20.77;;
49614;SDS011;35517;45.272;9.984;2022-11-21T01:32:33;35.03;;;22.55;;
49614;SDS011;35517;45.272;9.984;2022-11-21T01:34:59;42.03;;;21.95;;
49614;SDS011;35517;45.272;9.984;2022-11-21T01:37:26;36.08;;;22.02;;
49614;SDS011;35517;45.272;9.984;2022-11-21T01:39:52;39.65;;;23.55;;
49614;SDS011;35517;45.272;9.984;2022-11-21T01:42:19;81.32;;;23.48;;
49614;SDS011;35517;45.272;9.984;2022-11-21T01:44:50;163.60;;;25.23;;
49614;SDS011;35517;45.272;9.984;2022-11-21T01:47:18;236.15;;;28.20;;
49614;SDS011;35517;45.272;9.984;2022-11-21T01:49:45;120.38;;;20.92;;
49614;SDS011;35517;45.272;9.984;2022-11-21T01:52:14;131.93;;;21.58;;
49614;SDS011;35517;45.272;9.984;2022-11-21T01:55:01;123.75;;;21.98;;
49614;SDS011;35517;45.272;9.984;2022-11-21T01:57:29;103.55;;;19.95;;
49614;SDS011;35517;45.272;9.984;2022-11-21T02:02:36;39.70;;;19.27;;
49614;SDS011;35517;45.272;9.984;2022-11-21T02:05:06;51.25;;;21.55;;
49614;SDS011;35517;45.272;9.984;2022-11-21T02:07:34;40.03;;;22.67;;
49614;SDS011;35517;45.272;9.984;2022-11-21T02:10:02;33.72;;;22.20;;
49614;SDS011;35517;45.272;9.984;2022-11-21T02:12:30;30.75;;;21.38;;
49614;SDS011;35517;45.272;9.984;2022-11-21T02:14:57;37.33;;;21.13;;
49614;SDS011;35517;45.272;9.984;2022-11-21T02:17:25;65.10;;;23.80;;
49614;SDS011;35517;45.272;9.984;2022-11-21T02:19:56;58.08;;;22.55;;
49614;SDS011;35517;45.272;9.984;2022-11-21T02:22:26;138.48;;;24.10;;
49614;SDS011;35517;45.272;9.984;2022-11-21T02:25:14;218.52;;;32.80;;
49614;SDS011;35517;45.272;9.984;2022-11-21T02:27:43;44.90;;;23.95;;
49614;SDS011;35517;45.272;9.984;2022-11-21T02:30:10;65.68;;;25.33;;
49614;SDS011;35517;45.272;9.984;2022-11-21T02:32:38;174.18;;;25.90;;
49614;SDS011;35517;45.272;9.984;2022-11-21T02:35:05;106.53;;;21.60;;
49614;SDS011;35517;45.272;9.984;2022-11-21T02:37:32;172.45;;;23.65;;
49614;SDS011;35517;45.272;9.984;2022-11-21T02:40:00;129.50;;;22.70;;
49614;SDS011;35517;45.272;9.984;2022-11-21T02:42:41;125.97;;;23.50;;
49614;SDS011;35517;45.272;9.984;2022-11-21T02:45:18;150.45;;;23.95;;
49614;SDS011;35517;45.272;9.984;2022-11-21T02:47:45;129.80;;;21.05;;
49614;SDS011;35517;45.272;9.984;2022-11-21T02:50:15;177.10;;;23.17;;
49614;SDS011;35517;45.272;9.984;2022-11-21T02:52:44;181.02;;;26.10;;
49614;SDS011;35517;45.272;9.984;2022-11-21T02:55:11;158.07;;;26.15;;
49614;SDS011;35517;45.272;9.984;2022-11-21T02:57:39;150.52;;;26.40;;
49614;SDS011;35517;45.272;9.984;2022-11-21T03:00:07;131.75;;;26.77;;
49614;SDS011;35517;45.272;9.984;2022-11-21T03:02:34;141.73;;;26.33;;
49614;SDS011;35517;45.272;9.984;2022-11-21T03:05:00;62.97;;;20.73;;
49614;SDS011;35517;45.272;9.984;2022-11-21T03:07:27;49.65;;;21.05;;
49614;SDS011;35517;45.272;9.984;2022-11-21T03:09:54;27.38;;;18.95;;
49614;SDS011;35517;45.272;9.984;2022-11-21T03:12:20;27.08;;;18.25;;
49614;SDS011;35517;45.272;9.984;2022-11-21T03:14:47;25.25;;;17.92;;
49614;SDS011;35517;45.272;9.984;2022-11-21T03:17:13;23.83;;;16.88;;
49614;SDS011;35517;45.272;9.984;2022-11-21T03:19:40;22.73;;;16.77;;
49614;SDS011;35517;45.272;9.984;2022-11-21T03:22:07;20.50;;;16.17;;
49614;SDS011;35517;45.272;9.984;2022-11-21T03:24:33;23.38;;;16.88;;
49614;SDS011;35517;45.272;9.984;2022-11-21T03:27:00;20.88;;;15.70;;
49614;SDS011;35517;45.272;9.984;2022-11-21T03:29:26;20.55;;;16.33;;
49614;SDS011;35517;45.272;9.984;2022-11-21T03:31:53;20.30;;;15.65;;
49614;SDS011;35517;45.272;9.984;2022-11-21T03:34:19;16.90;;;13.88;;
49614;SDS011;35517;45.272;9.984;2022-11-21T03:36:50;20.20;;;14.45;;
49614;SDS011;35517;45.272;9.984;2022-11-21T03:39:17;19.50;;;15.30;;
49614;SDS011;35517;45.272;9.984;2022-11-21T03:41:43;21.08;;;17.45;;
49614;SDS011;35517;45.272;9.984;2022-11-21T03:44:10;23.80;;;16.45;;
49614;SDS011;35517;45.272;9.984;2022-11-21T03:46:38;22.17;;;17.05;;
49614;SDS011;35517;45.272;9.984;2022-11-21T03:49:05;48.88;;;16.85;;
49614;SDS011;35517;45.272;9.984;2022-11-21T03:51:32;23.45;;;15.35;;
49614;SDS011;35517;45.272;9.984;2022-11-21T03:53:59;31.25;;;16.08;;
49614;SDS011;35517;45.272;9.984;2022-11-21T03:56:26;21.00;;;15.50;;
49614;SDS011;35517;45.272;9.984;2022-11-21T03:58:53;21.48;;;15.13;;
49614;SDS011;35517;45.272;9.984;2022-11-21T04:01:19;20.38;;;14.45;;
49614;SDS011;35517;45.272;9.984;2022-11-21T04:03:46;18.05;;;13.77;;
49614;SDS011;35517;45.272;9.984;2022-11-21T04:06:13;18.02;;;14.50;;
49614;SDS011;35517;45.272;9.984;2022-11-21T04:08:40;18.05;;;14.35;;
49614;SDS011;35517;45.272;9.984;2022-11-21T04:11:07;19.80;;;15.02;;
49614;SDS011;35517;45.272;9.984;2022-11-21T04:13:34;20.15;;;14.65;;
49614;SDS011;35517;45.272;9.984;2022-11-21T04:16:00;24.63;;;13.50;;
49614;SDS011;35517;45.272;9.984;2022-11-21T04:18:27;26.00;;;12.95;;
49614;SDS011;35517;45.272;9.984;2022-11-21T04:20:57;18.98;;;14.10;;
49614;SDS011;35517;45.272;9.984;2022-11-21T04:23:24;19.17;;;13.98;;
49614;SDS011;35517;45.272;9.984;2022-11-21T04:25:50;42.70;;;15.18;;
49614;SDS011;35517;45.272;9.984;2022-11-21T04:28:17;40.10;;;14.05;;
49614;SDS011;35517;45.272;9.984;2022-11-21T04:30:44;32.65;;;14.00;;
49614;SDS011;35517;45.272;9.984;2022-11-21T04:33:10;43.70;;;13.93;;
49614;SDS011;35517;45.272;9.984;2022-11-21T04:35:37;45.42;;;15.27;;
49614;SDS011;35517;45.272;9.984;2022-11-21T04:38:06;26.10;;;14.45;;
49614;SDS011;35517;45.272;9.984;2022-11-21T04:40:33;32.88;;;14.13;;
49614;SDS011;35517;45.272;9.984;2022-11-21T04:43:00;29.48;;;14.18;;
49614;SDS011;35517;45.272;9.984;2022-11-21T04:45:26;70.00;;;16.45;;
49614;SDS011;35517;45.272;9.984;2022-11-21T04:47:53;70.50;;;16.50;;
49614;SDS011;35517;45.272;9.984;2022-11-21T04:50:19;31.48;;;15.70;;
49614;SDS011;35517;45.272;9.984;2022-11-21T04:52:53;55.38;;;15.68;;
49614;SDS011;35517;45.272;9.984;2022-11-21T04:55:20;33.20;;;14.40;;
49614;SDS011;35517;45.272;9.984;2022-11-21T04:57:47;67.28;;;15.90;;
49614;SDS011;35517;45.272;9.984;2022-11-21T05:00:15;31.38;;;15.18;;
49614;SDS011;35517;45.272;9.984;2022-11-21T05:02:42;38.80;;;14.30;;
49614;SDS011;35517;45.272;9.984;2022-11-21T05:05:09;35.70;;;15.20;;
49614;SDS011;35517;45.272;9.984;2022-11-21T05:07:36;65.35;;;15.35;;
49614;SDS011;35517;45.272;9.984;2022-11-21T05:10:03;50.80;;;15.90;;
49614;SDS011;35517;45.272;9.984;2022-11-21T05:12:30;66.18;;;16.13;;
49614;SDS011;35517;45.272;9.984;2022-11-21T05:15:15;128.60;;;17.58;;
49614;SDS011;35517;45.272;9.984;2022-11-21T05:17:42;79.43;;;18.63;;
49614;SDS011;35517;45.272;9.984;2022-11-21T05:20:08;81.88;;;16.77;;
49614;SDS011;35517;45.272;9.984;2022-11-21T05:22:35;105.65;;;19.30;;
49614;SDS011;35517;45.272;9.984;2022-11-21T05:25:02;80.72;;;18.58;;
49614;SDS011;35517;45.272;9.984;2022-11-21T05:27:29;146.38;;;18.90;;
49614;SDS011;35517;45.272;9.984;2022-11-21T05:29:55;84.47;;;17.38;;
49614;SDS011;35517;45.272;9.984;2022-11-21T05:32:24;113.50;;;17.02;;
49614;SDS011;35517;45.272;9.984;2022-11-21T05:34:51;134.25;;;16.02;;
49614;SDS011;35517;45.272;9.984;2022-11-21T05:37:17;74.82;;;14.30;;
49614;SDS011;35517;45.272;9.984;2022-11-21T05:39:46;87.63;;;16.13;;
49614;SDS011;35517;45.272;9.984;2022-11-21T05:42:12;43.67;;;13.57;;
49614;SDS011;35517;45.272;9.984;2022-11-21T05:44:39;109.28;;;15.20;;
49614;SDS011;35517;45.272;9.984;2022-11-21T05:47:05;58.33;;;15.48;;
49614;SDS011;35517;45.272;9.984;2022-11-21T05:49:32;58.97;;;15.75;;
49614;SDS011;35517;45.272;9.984;2022-11-21T05:51:58;52.10;;;14.07;;
49614;SDS011;35517;45.272;9.984;2022-11-21T05:54:25;38.53;;;14.05;;
49614;SDS011;35517;45.272;9.984;2022-11-21T05:56:52;43.03;;;15.32;;
49614;SDS011;35517;45.272;9.984;2022-11-21T05:59:18;26.35;;;14.55;;
49614;SDS011;35517;45.272;9.984;2022-11-21T06:01:45;24.25;;;14.55;;
49614;SDS011;35517;45.272;9.984;2022-11-21T06:04:30;33.47;;;15.82;;
49614;SDS011;35517;45.272;9.984;2022-11-21T06:06:57;50.10;;;15.45;;
49614;SDS011;35517;45.272;9.984;2022-11-21T06:09:24;55.65;;;14.73;;
49614;SDS011;35517;45.272;9.984;2022-11-21T06:11:50;23.42;;;13.45;;
49614;SDS011;35517;45.272;9.984;2022-11-21T06:14:17;30.23;;;14.18;;
49614;SDS011;35517;45.272;9.984;2022-11-21T06:16:43;66.82;;;15.57;;
49614;SDS011;35517;45.272;9.984;2022-11-21T06:19:10;32.85;;;13.00;;
49614;SDS011;35517;45.272;9.984;2022-11-21T06:21:37;19.15;;;12.15;;
49614;SDS011;35517;45.272;9.984;2022-11-21T06:24:03;17.20;;;12.95;;
49614;SDS011;35517;45.272;9.984;2022-11-21T06:26:30;16.27;;;13.07;;
49614;SDS011;35517;45.272;9.984;2022-11-21T06:28:57;15.63;;;13.18;;
49614;SDS011;35517;45.272;9.984;2022-11-21T06:31:24;17.33;;;13.18;;
49614;SDS011;35517;45.272;9.984;2022-11-21T06:33:54;21.98;;;12.50;;
49614;SDS011;35517;45.272;9.984;2022-11-21T06:36:21;15.63;;;12.93;;
49614;SDS011;35517;45.272;9.984;2022-11-21T06:38:48;19.83;;;13.85;;
49614;SDS011;35517;45.272;9.984;2022-11-21T06:41:19;18.63;;;13.85;;
49614;SDS011;35517;45.272;9.984;2022-11-21T06:43:45;17.60;;;14.48;;
49614;SDS011;35517;45.272;9.984;2022-11-21T06:46:12;19.17;;;14.38;;
49614;SDS011;35517;45.272;9.984;2022-11-21T06:48:43;24.58;;;15.05;;
49614;SDS011;35517;45.272;9.984;2022-11-21T06:51:11;20.85;;;14.32;;
49614;SDS011;35517;45.272;9.984;2022-11-21T06:53:38;28.58;;;14.15;;
49614;SDS011;35517;45.272;9.984;2022-11-21T06:56:05;24.45;;;14.73;;
49614;SDS011;35517;45.272;9.984;2022-11-21T06:58:32;19.00;;;13.10;;
49614;SDS011;35517;45.272;9.984;2022-11-21T07:01:02;18.88;;;12.93;;
49614;SDS011;35517;45.272;9.984;2022-11-21T07:03:29;20.95;;;14.38;;
49614;SDS011;35517;45.272;9.984;2022-11-21T07:05:55;18.95;;;13.52;;
49614;SDS011;35517;45.272;9.984;2022-11-21T07:08:27;21.83;;;14.13;;
49614;SDS011;35517;45.272;9.984;2022-11-21T07:10:54;16.92;;;13.90;;
49614;SDS011;35517;45.272;9.984;2022-11-21T07:13:20;18.75;;;12.75;;
49614;SDS011;35517;45.272;9.984;2022-11-21T07:18:39;21.42;;;14.48;;
49614;SDS011;35517;45.272;9.984;2022-11-21T07:21:07;20.08;;;14.38;;
49614;SDS011;35517;45.272;9.984;2022-11-21T07:23:34;23.08;;;14.00;;
49614;SDS011;35517;45.272;9.984;2022-11-21T07:26:01;22.42;;;14.70;;
49614;SDS011;35517;45.272;9.984;2022-11-21T07:28:28;24.75;;;14.05;;
49614;SDS011;35517;45.272;9.984;2022-11-21T07:30:55;22.58;;;15.52;;
49614;SDS011;35517;45.272;9.984;2022-11-21T07:33:22;24.52;;;15.57;;
49614;SDS011;35517;45.272;9.984;2022-11-21T07:35:48;24.90;;;13.98;;
49614;SDS011;35517;45.272;9.984;2022-11-21T07:38:15;25.00;;;15.65;;
49614;SDS011;35517;45.272;9.984;2022-11-21T07:40:42;19.45;;;14.20;;
49614;SDS011;35517;45.272;9.984;2022-11-21T07:43:09;17.85;;;13.07;;
49614;SDS011;35517;45.272;9.984;2022-11-21T07:45:36;21.67;;;13.75;;
49614;SDS011;35517;45.272;9.984;2022-11-21T07:48:06;17.95;;;13.40;;
49614;SDS011;35517;45.272;9.984;2022-11-21T07:50:33;15.65;;;12.38;;
49614;SDS011;35517;45.272;9.984;2022-11-21T07:53:00;17.40;;;12.32;;
49614;SDS011;35517;45.272;9.984;2022-11-21T07:55:27;13.15;;;10.48;;
49614;SDS011;35517;45.272;9.984;2022-11-21T07:58:00;17.05;;;11.90;;
49614;SDS011;35517;45.272;9.984;2022-11-21T08:00:28;14.27;;;10.35;;
49614;SDS011;35517;45.272;9.984;2022-11-21T08:02:54;14.43;;;10.38;;
49614;SDS011;35517;45.272;9.984;2022-11-21T08:05:21;12.50;;;9.85;;
49614;SDS011;35517;45.272;9.984;2022-11-21T08:07:49;14.57;;;9.60;;
49614;SDS011;35517;45.272;9.984;2022-11-21T08:10:15;14.60;;;9.13;;
49614;SDS011;35517;45.272;9.984;2022-11-21T08:12:45;11.85;;;9.23;;
49614;SDS011;35517;45.272;9.984;2022-11-21T08:15:11;14.80;;;9.82;;
49614;SDS011;35517;45.272;9.984;2022-11-21T08:17:38;11.52;;;9.40;;
49614;SDS011;35517;45.272;9.984;2022-11-21T08:20:11;17.67;;;9.15;;
49614;SDS011;35517;45.272;9.984;2022-11-21T08:22:39;16.17;;;10.57;;
49614;SDS011;35517;45.272;9.984;2022-11-21T08:25:06;15.05;;;9.73;;
49614;SDS011;35517;45.272;9.984;2022-11-21T08:27:32;18.65;;;10.68;;
49614;SDS011;35517;45.272;9.984;2022-11-21T08:29:59;15.52;;;9.95;;
49614;SDS011;35517;45.272;9.984;2022-11-21T08:32:25;10.10;;;8.18;;
49614;SDS011;35517;45.272;9.984;2022-11-21T08:34:52;12.27;;;9.00;;
49614;SDS011;35517;45.272;9.984;2022-11-21T08:37:18;12.43;;;9.48;;
49614;SDS011;35517;45.272;9.984;2022-11-21T08:39:45;10.82;;;8.40;;
49614;SDS011;35517;45.272;9.984;2022-11-21T08:42:12;12.52;;;8.63;;
49614;SDS011;35517;45.272;9.984;2022-11-21T08:44:38;11.52;;;8.82;;
49614;SDS011;35517;45.272;9.984;2022-11-21T08:47:05;18.27;;;10.25;;
49614;SDS011;35517;45.272;9.984;2022-11-21T08:49:32;13.15;;;9.25;;
49614;SDS011;35517;45.272;9.984;2022-11-21T08:51:59;15.68;;;8.50;;
49614;SDS011;35517;45.272;9.984;2022-11-21T08:54:26;12.25;;;8.27;;
49614;SDS011;35517;45.272;9.984;2022-11-21T08:56:52;13.07;;;8.90;;
49614;SDS011;35517;45.272;9.984;2022-11-21T08:59:19;12.55;;;8.35;;
49614;SDS011;35517;45.272;9.984;2022-11-21T09:01:45;13.52;;;8.00;;
49614;SDS011;35517;45.272;9.984;2022-11-21T09:04:12;11.55;;;8.57;;
49614;SDS011;35517;45.272;9.984;2022-11-21T09:06:39;15.38;;;8.73;;
49614;SDS011;35517;45.272;9.984;2022-11-21T09:09:05;12.73;;;9.05;;
49614;SDS011;35517;45.272;9.984;2022-11-21T09:11:35;12.27;;;8.75;;
49614;SDS011;35517;45.272;9.984;2022-11-21T09:14:04;16.08;;;9.85;;
49614;SDS011;35517;45.272;9.984;2022-11-21T09:16:49;13.77;;;8.25;;
49614;SDS011;35517;45.272;9.984;2022-11-21T09:19:34;12.93;;;9.27;;
49614;SDS011;35517;45.272;9.984;2022-11-21T09:22:01;12.20;;;9.60;;
49614;SDS011;35517;45.272;9.984;2022-11-21T09:24:28;14.93;;;9.60;;
49614;SDS011;35517;45.272;9.984;2022-11-21T09:26:54;13.68;;;9.40;;
49614;SDS011;35517;45.272;9.984;2022-11-21T09:29:21;12.32;;;8.48;;
49614;SDS011;35517;45.272;9.984;2022-11-21T09:31:47;14.15;;;9.25;;
49614;SDS011;35517;45.272;9.984;2022-11-21T09:34:14;12.70;;;9.40;;
49614;SDS011;35517;45.272;9.984;2022-11-21T09:36:40;14.13;;;10.90;;
49614;SDS011;35517;45.272;9.984;2022-11-21T09:39:07;13.63;;;9.30;;
49614;SDS011;35517;45.272;9.984;2022-11-21T09:46:58;15.60;;;8.05;;
49614;SDS011;35517;45.272;9.984;2022-11-21T09:49:28;11.23;;;8.45;;
49614;SDS011;35517;45.272;9.984;2022-11-21T09:51:55;17.08;;;11.65;;
49614;SDS011;35517;45.272;9.984;2022-11-21T09:54:32;9.90;;;7.80;;
49614;SDS011;35517;45.272;9.984;2022-11-21T09:57:00;13.70;;;9.02;;
49614;SDS011;35517;45.272;9.984;2022-11-21T09:59:34;15.15;;;8.90;;
49614;SDS011;35517;45.272;9.984;2022-11-21T10:02:02;12.18;;;9.00;;
49614;SDS011;35517;45.272;9.984;2022-11-21T10:04:28;13.05;;;8.40;;
49614;SDS011;35517;45.272;9.984;2022-11-21T10:07:01;10.63;;;8.27;;
49614;SDS011;35517;45.272;9.984;2022-11-21T10:17:38;15.73;;;9.82;;
49614;SDS011;35517;45.272;9.984;2022-11-21T10:25:41;14.45;;;8.23;;
49614;SDS011;35517;45.272;9.984;2022-11-21T10:28:16;15.80;;;11.20;;
49614;SDS011;35517;45.272;9.984;2022-11-21T10:30:44;14.27;;;9.38;;
49614;SDS011;35517;45.272;9.984;2022-11-21T10:33:17;12.40;;;9.75;;
49614;SDS011;35517;45.272;9.984;2022-11-21T10:35:48;13.40;;;10.70;;
49614;SDS011;35517;45.272;9.984;2022-11-21T10:38:23;13.88;;;9.23;;
49614;SDS011;35517;45.272;9.984;2022-11-21T10:40:58;34.97;;;17.83;;
49614;SDS011;35517;45.272;9.984;2022-11-21T10:47:01;32.92;;;23.48;;
49614;SDS011;35517;45.272;9.984;2022-11-21T10:49:38;19.98;;;14.55;;
49614;SDS011;35517;45.272;9.984;2022-11-21T10:52:06;13.50;;;9.85;;
49614;SDS011;35517;45.272;9.984;2022-11-21T10:57:21;19.83;;;13.45;;
49614;SDS011;35517;45.272;9.984;2022-11-21T10:59:58;75.55;;;33.55;;
49614;SDS011;35517;45.272;9.984;2022-11-21T11:02:25;60.80;;;30.33;;
49614;SDS011;35517;45.272;9.984;2022-11-21T11:07:37;17.35;;;11.32;;
49614;SDS011;35517;45.272;9.984;2022-11-21T11:10:13;15.60;;;9.55;;
49614;SDS011;35517;45.272;9.984;2022-11-21T11:12:40;14.50;;;10.18;;
49614;SDS011;35517;45.272;9.984;2022-11-21T11:15:26;15.52;;;9.07;;
49614;SDS011;35517;45.272;9.984;2022-11-21T11:17:56;16.00;;;12.25;;
49614;SDS011;35517;45.272;9.984;2022-11-21T11:22:54;13.57;;;10.43;;
49614;SDS011;35517;45.272;9.984;2022-11-21T11:25:20;17.00;;;9.77;;
49614;SDS011;35517;45.272;9.984;2022-11-21T11:27:48;17.27;;;10.20;;
49614;SDS011;35517;45.272;9.984;2022-11-21T11:30:15;15.27;;;9.93;;
49614;SDS011;35517;45.272;9.984;2022-11-21T11:32:42;14.55;;;9.75;;
49614;SDS011;35517;45.272;9.984;2022-11-21T11:37:38;14.88;;;10.75;;
49614;SDS011;35517;45.272;9.984;2022-11-21T11:42:39;13.85;;;9.38;;
49614;SDS011;35517;45.272;9.984;2022-11-21T11:48:27;18.38;;;9.75;;
49614;SDS011;35517;45.272;9.984;2022-11-21T11:50:55;15.77;;;10.00;;
49614;SDS011;35517;45.272;9.984;2022-11-21T11:53:26;17.08;;;9.60;;
49614;SDS011;35517;45.272;9.984;2022-11-21T11:55:56;15.48;;;9.98;;
49614;SDS011;35517;45.272;9.984;2022-11-21T11:58:31;16.65;;;11.13;;
49614;SDS011;35517;45.272;9.984;2022-11-21T12:01:03;16.42;;;10.48;;
49614;SDS011;35517;45.272;9.984;2022-11-21T12:11:12;17.98;;;11.02;;
49614;SDS011;35517;45.272;9.984;2022-11-21T12:14:02;17.65;;;10.43;;
49614;SDS011;35517;45.272;9.984;2022-11-21T12:16:30;16.83;;;10.93;;
49614;SDS011;35517;45.272;9.984;2022-11-21T12:19:02;17.13;;;11.10;;
49614;SDS011;35517;45.272;9.984;2022-11-21T12:21:31;15.70;;;11.02;;
49614;SDS011;35517;45.272;9.984;2022-11-21T12:24:00;16.55;;;10.82;;
49614;SDS011;35517;45.272;9.984;2022-11-21T12:36:39;15.38;;;11.10;;
49614;SDS011;35517;45.272;9.984;2022-11-21T12:50:36;14.90;;;10.13;;
49614;SDS011;35517;45.272;9.984;2022-11-21T12:56:25;16.50;;;10.77;;
49614;SDS011;35517;45.272;9.984;2022-11-21T12:58:55;18.33;;;11.40;;
49614;SDS011;35517;45.272;9.984;2022-11-21T13:01:26;18.85;;;12.65;;
49614;SDS011;35517;45.272;9.984;2022-11-21T13:04:00;15.05;;;10.13;;
49614;SDS011;35517;45.272;9.984;2022-11-21T13:06:35;19.63;;;11.38;;
49614;SDS011;35517;45.272;9.984;2022-11-21T13:09:04;16.98;;;10.23;;
49614;SDS011;35517;45.272;9.984;2022-11-21T13:14:29;16.80;;;10.93;;
49614;SDS011;35517;45.272;9.984;2022-11-21T13:22:02;21.90;;;10.18;;
49614;SDS011;35517;45.272;9.984;2022-11-21T13:45:36;15.30;;;9.88;;
49614;SDS011;35517;45.272;9.984;2022-11-21T13:48:09;13.57;;;8.85;;
49614;SDS011;35517;45.272;9.984;2022-11-21T13:56:17;13.80;;;9.40;;
49614;SDS011;35517;45.272;9.984;2022-11-21T14:04:13;16.90;;;10.48;;
49614;SDS011;35517;45.272;9.984;2022-11-21T14:06:42;16.30;;;9.10;;
49614;SDS011;35517;45.272;9.984;2022-11-21T14:09:13;17.35;;;10.35;;
49614;SDS011;35517;45.272;9.984;2022-11-21T14:11:49;16.00;;;10.45;;
49614;SDS011;35517;45.272;9.984;2022-11-21T14:19:47;16.25;;;10.85;;
49614;SDS011;35517;45.272;9.984;2022-11-21T14:22:26;17.30;;;9.65;;
49614;SDS011;35517;45.272;9.984;2022-11-21T14:24:54;17.05;;;9.68;;
49614;SDS011;35517;45.272;9.984;2022-11-21T14:27:30;15.77;;;9.65;;
49614;SDS011;35517;45.272;9.984;2022-11-21T14:29:57;18.23;;;10.88;;
49614;SDS011;35517;45.272;9.984;2022-11-21T14:32:25;18.88;;;10.80;;
49614;SDS011;35517;45.272;9.984;2022-11-21T14:34:52;14.98;;;9.63;;
49614;SDS011;35517;45.272;9.984;2022-11-21T14:37:18;18.55;;;10.57;;
49614;SDS011;35517;45.272;9.984;2022-11-21T14:39:46;16.75;;;9.82;;
49614;SDS011;35517;45.272;9.984;2022-11-21T14:42:13;19.17;;;10.52;;
49614;SDS011;35517;45.272;9.984;2022-11-21T14:44:41;20.15;;;10.60;;
49614;SDS011;35517;45.272;9.984;2022-11-21T14:47:14;18.20;;;10.57;;
49614;SDS011;35517;45.272;9.984;2022-11-21T14:49:48;16.35;;;9.98;;
49614;SDS011;35517;45.272;9.984;2022-11-21T14:52:33;15.82;;;9.65;;
49614;SDS011;35517;45.272;9.984;2022-11-21T14:55:01;16.25;;;10.32;;
49614;SDS011;35517;45.272;9.984;2022-11-21T14:57:29;24.73;;;10.32;;
49614;SDS011;35517;45.272;9.984;2022-11-21T14:59:56;19.13;;;10.77;;
49614;SDS011;35517;45.272;9.984;2022-11-21T15:02:25;20.00;;;10.07;;
49614;SDS011;35517;45.272;9.984;2022-11-21T15:04:52;20.45;;;10.48;;
49614;SDS011;35517;45.272;9.984;2022-11-21T15:09:48;19.77;;;10.85;;
49614;SDS011;35517;45.272;9.984;2022-11-21T15:12:59;19.73;;;12.38;;
49614;SDS011;35517;45.272;9.984;2022-11-21T15:17:48;22.30;;;12.52;;
49614;SDS011;35517;45.272;9.984;2022-11-21T15:20:18;21.25;;;11.00;;
49614;SDS011;35517;45.272;9.984;2022-11-21T15:22:45;18.92;;;11.73;;
49614;SDS011;35517;45.272;9.984;2022-11-21T15:27:46;17.23;;;10.90;;
49614;SDS011;35517;45.272;9.984;2022-11-21T15:35:39;29.75;;;14.45;;
49614;SDS011;35517;45.272;9.984;2022-11-21T15:38:13;25.75;;;15.32;;
49614;SDS011;35517;45.272;9.984;2022-11-21T15:40:54;37.47;;;20.50;;
49614;SDS011;35517;45.272;9.984;2022-11-21T15:43:37;39.65;;;22.15;;
49614;SDS011;35517;45.272;9.984;2022-11-21T15:46:24;43.75;;;23.52;;
49614;SDS011;35517;45.272;9.984;2022-11-21T15:48:52;34.15;;;19.70;;
49614;SDS011;35517;45.272;9.984;2022-11-21T15:51:20;33.13;;;20.77;;
49614;SDS011;35517;45.272;9.984;2022-11-21T15:53:46;31.13;;;19.98;;
49614;SDS011;35517;45.272;9.984;2022-11-21T15:56:14;29.88;;;20.83;;
49614;SDS011;35517;45.272;9.984;2022-11-21T15:58:41;38.70;;;22.77;;
49614;SDS011;35517;45.272;9.984;2022-11-21T16:01:18;36.10;;;23.65;;
49614;SDS011;35517;45.272;9.984;2022-11-21T16:03:52;32.58;;;22.25;;
49614;SDS011;35517;45.272;9.984;2022-11-21T16:06:21;37.63;;;23.42;;
49614;SDS011;35517;45.272;9.984;2022-11-21T16:08:50;40.97;;;23.98;;
49614;SDS011;35517;45.272;9.984;2022-11-21T16:11:19;40.65;;;23.83;;
49614;SDS011;35517;45.272;9.984;2022-11-21T16:13:51;41.85;;;24.40;;
49614;SDS011;35517;45.272;9.984;2022-11-21T16:16:18;36.33;;;22.40;;
49614;SDS011;35517;45.272;9.984;2022-11-21T16:18:45;39.13;;;23.20;;
49614;SDS011;35517;45.272;9.984;2022-11-21T16:21:11;36.70;;;21.80;;
49614;SDS011;35517;45.272;9.984;2022-11-21T16:23:38;38.90;;;22.40;;
49614;SDS011;35517;45.272;9.984;2022-11-21T16:26:05;42.30;;;25.63;;
49614;SDS011;35517;45.272;9.984;2022-11-21T16:28:33;44.72;;;25.63;;
49614;SDS011;35517;45.272;9.984;2022-11-21T16:31:00;40.75;;;26.33;;
49614;SDS011;35517;45.272;9.984;2022-11-21T16:33:27;49.15;;;26.35;;
49614;SDS011;35517;45.272;9.984;2022-11-21T16:35:55;46.70;;;27.40;;
49614;SDS011;35517;45.272;9.984;2022-11-21T16:38:22;45.65;;;28.08;;
49614;SDS011;35517;45.272;9.984;2022-11-21T16:40:52;46.83;;;29.80;;
49614;SDS011;35517;45.272;9.984;2022-11-21T16:43:19;44.05;;;27.38;;
49614;SDS011;35517;45.272;9.984;2022-11-21T16:45:46;52.45;;;28.65;;
49614;SDS011;35517;45.272;9.984;2022-11-21T16:48:13;50.00;;;30.42;;